sensor_id;sensor_type;location;lat;lon;timestamp;pressure;altitude;pressure_sealevel;temperature
18474;BMP180;30265;52.408;13.500;2022-07-10T00:00:17;101745.00;;;14.10
18474;BMP180;30265;52.408;13.500;2022-07-10T00:10:41;101750.00;;;14.30
18474;BMP180;30265;52.408;13.500;2022-07-10T00:21:05;101737.00;;;14.30
18474;BMP180;30265;52.408;13.500;2022-07-10T00:31:27;101728.00;;;14.40
18474;BMP180;30265;52.408;13.500;2022-07-10T00:41:50;101731.00;;;14.60
18474;BMP180;30265;52.408;13.500;2022-07-10T00:52:13;101717.00;;;14.60
18474;BMP180;30265;52.408;13.500;2022-07-10T01:02:37;101711.00;;;14.50
18474;BMP180;30265;52.408;13.500;2022-07-10T01:13:01;101698.00;;;14.50
18474;BMP180;30265;52.408;13.500;2022-07-10T01:23:25;101699.00;;;14.50
18474;BMP180;30265;52.408;13.500;2022-07-10T01:33:46;101691.00;;;14.50
18474;BMP180;30265;52.408;13.500;2022-07-10T01:44:09;101682.00;;;14.40
18474;BMP180;30265;52.408;13.500;2022-07-10T01:54:31;101676.00;;;14.30
18474;BMP180;30265;52.408;13.500;2022-07-10T02:04:54;101671.00;;;14.20
18474;BMP180;30265;52.408;13.500;2022-07-10T02:15:16;101675.00;;;14.20
18474;BMP180;30265;52.408;13.500;2022-07-10T02:25:39;101681.00;;;14.20
18474;BMP180;30265;52.408;13.500;2022-07-10T02:36:01;101682.00;;;14.10
18474;BMP180;30265;52.408;13.500;2022-07-10T02:46:24;101682.00;;;14.00
18474;BMP180;30265;52.408;13.500;2022-07-10T02:56:46;101669.00;;;13.90
18474;BMP180;30265;52.408;13.500;2022-07-10T03:07:08;101673.00;;;13.80
18474;BMP180;30265;52.408;13.500;2022-07-10T03:17:30;101668.00;;;13.70
18474;BMP180;30265;52.408;13.500;2022-07-10T03:27:53;101670.00;;;13.70
18474;BMP180;30265;52.408;13.500;2022-07-10T03:38:15;101661.00;;;13.80
18474;BMP180;30265;52.408;13.500;2022-07-10T03:48:37;101649.00;;;13.70
18474;BMP180;30265;52.408;13.500;2022-07-10T03:59:00;101650.00;;;13.60
18474;BMP180;30265;52.408;13.500;2022-07-10T04:09:23;101664.00;;;13.60
18474;BMP180;30265;52.408;13.500;2022-07-10T04:19:45;101656.00;;;13.60
18474;BMP180;30265;52.408;13.500;2022-07-10T04:30:09;101653.00;;;13.60
18474;BMP180;30265;52.408;13.500;2022-07-10T04:40:31;101649.00;;;13.70
18474;BMP180;30265;52.408;13.500;2022-07-10T04:50:54;101646.00;;;13.80
18474;BMP180;30265;52.408;13.500;2022-07-10T05:01:16;101639.00;;;13.70
18474;BMP180;30265;52.408;13.500;2022-07-10T05:11:39;101640.00;;;13.90
18474;BMP180;30265;52.408;13.500;2022-07-10T05:22:02;101637.00;;;14.20
18474;BMP180;30265;52.408;13.500;2022-07-10T05:32:25;101650.00;;;14.10
18474;BMP180;30265;52.408;13.500;2022-07-10T05:42:47;101649.00;;;14.10
18474;BMP180;30265;52.408;13.500;2022-07-10T05:53:13;101641.00;;;14.30
18474;BMP180;30265;52.408;13.500;2022-07-10T06:03:35;101634.00;;;14.30
18474;BMP180;30265;52.408;13.500;2022-07-10T06:13:58;101636.00;;;14.60
18474;BMP180;30265;52.408;13.500;2022-07-10T06:24:20;101644.00;;;14.50
18474;BMP180;30265;52.408;13.500;2022-07-10T06:34:43;101635.00;;;14.80
18474;BMP180;30265;52.408;13.500;2022-07-10T06:45:05;101636.00;;;14.90
18474;BMP180;30265;52.408;13.500;2022-07-10T06:55:29;101651.00;;;15.00
18474;BMP180;30265;52.408;13.500;2022-07-10T07:05:51;101647.00;;;15.30
18474;BMP180;30265;52.408;13.500;2022-07-10T07:16:14;101636.00;;;15.30
18474;BMP180;30265;52.408;13.500;2022-07-10T07:26:38;101631.00;;;15.50
18474;BMP180;30265;52.408;13.500;2022-07-10T07:37:05;101633.00;;;16.00
18474;BMP180;30265;52.408;13.500;2022-07-10T07:47:27;101631.00;;;15.70
18474;BMP180;30265;52.408;13.500;2022-07-10T07:57:52;101617.00;;;15.40
18474;BMP180;30265;52.408;13.500;2022-07-10T08:08:21;101595.00;;;17.30
18474;BMP180;30265;52.408;13.500;2022-07-10T08:18:48;101603.00;;;16.30
18474;BMP180;30265;52.408;13.500;2022-07-10T08:29:11;101629.00;;;16.10
18474;BMP180;30265;52.408;13.500;2022-07-10T08:39:34;101617.00;;;15.90
18474;BMP180;30265;52.408;13.500;2022-07-10T08:49:56;101629.00;;;16.00
18474;BMP180;30265;52.408;13.500;2022-07-10T09:00:19;101628.00;;;16.50
18474;BMP180;30265;52.408;13.500;2022-07-10T09:10:42;101633.00;;;16.50
18474;BMP180;30265;52.408;13.500;2022-07-10T09:21:06;101639.00;;;17.10
18474;BMP180;30265;52.408;13.500;2022-07-10T09:31:51;101643.00;;;16.80
18474;BMP180;30265;52.408;13.500;2022-07-10T09:42:24;101643.00;;;17.20
18474;BMP180;30265;52.408;13.500;2022-07-10T09:52:54;101649.00;;;17.10
18474;BMP180;30265;52.408;13.500;2022-07-10T10:03:20;101629.00;;;18.20
18474;BMP180;30265;52.408;13.500;2022-07-10T10:13:45;101635.00;;;17.30
18474;BMP180;30265;52.408;13.500;2022-07-10T10:24:07;101636.00;;;17.30
18474;BMP180;30265;52.408;13.500;2022-07-10T10:34:44;101631.00;;;17.40
18474;BMP180;30265;52.408;13.500;2022-07-10T10:45:38;101628.00;;;18.60
18474;BMP180;30265;52.408;13.500;2022-07-10T10:56:23;101650.00;;;18.70
18474;BMP180;30265;52.408;13.500;2022-07-10T11:06:47;101648.00;;;18.30
18474;BMP180;30265;52.408;13.500;2022-07-10T11:17:11;101654.00;;;18.10
18474;BMP180;30265;52.408;13.500;2022-07-10T11:27:55;101650.00;;;18.70
18474;BMP180;30265;52.408;13.500;2022-07-10T11:38:26;101656.00;;;18.30
18474;BMP180;30265;52.408;13.500;2022-07-10T11:48:53;101673.00;;;18.10
18474;BMP180;30265;52.408;13.500;2022-07-10T11:59:24;101663.00;;;18.30
18474;BMP180;30265;52.408;13.500;2022-07-10T12:09:52;101666.00;;;18.30
18474;BMP180;30265;52.408;13.500;2022-07-10T12:20:17;101644.00;;;19.20
18474;BMP180;30265;52.408;13.500;2022-07-10T12:30:43;101663.00;;;19.20
18474;BMP180;30265;52.408;13.500;2022-07-10T12:41:08;101672.00;;;18.40
18474;BMP180;30265;52.408;13.500;2022-07-10T12:51:32;101638.00;;;19.30
18474;BMP180;30265;52.408;13.500;2022-07-10T13:02:17;101647.00;;;20.20
18474;BMP180;30265;52.408;13.500;2022-07-10T13:12:42;101649.00;;;20.10
18474;BMP180;30265;52.408;13.500;2022-07-10T13:23:05;101647.00;;;20.50
18474;BMP180;30265;52.408;13.500;2022-07-10T13:33:27;101672.00;;;19.60
18474;BMP180;30265;52.408;13.500;2022-07-10T13:43:50;101665.00;;;19.60
18474;BMP180;30265;52.408;13.500;2022-07-10T13:54:16;101689.00;;;19.10
18474;BMP180;30265;52.408;13.500;2022-07-10T14:04:39;101661.00;;;19.40
18474;BMP180;30265;52.408;13.500;2022-07-10T14:15:01;101654.00;;;20.00
18474;BMP180;30265;52.408;13.500;2022-07-10T14:25:26;101641.00;;;20.70
18474;BMP180;30265;52.408;13.500;2022-07-10T14:35:49;101634.00;;;21.20
18474;BMP180;30265;52.408;13.500;2022-07-10T14:46:12;101620.00;;;20.60
18474;BMP180;30265;52.408;13.500;2022-07-10T14:56:34;101625.00;;;20.40
18474;BMP180;30265;52.408;13.500;2022-07-10T15:06:58;101612.00;;;20.80
18474;BMP180;30265;52.408;13.500;2022-07-10T15:17:21;101598.00;;;20.60
18474;BMP180;30265;52.408;13.500;2022-07-10T15:27:46;101620.00;;;20.60
18474;BMP180;30265;52.408;13.500;2022-07-10T15:38:08;101624.00;;;20.00
18474;BMP180;30265;52.408;13.500;2022-07-10T15:48:32;101603.00;;;20.70
18474;BMP180;30265;52.408;13.500;2022-07-10T15:58:54;101593.00;;;20.80
18474;BMP180;30265;52.408;13.500;2022-07-10T16:09:19;101600.00;;;20.70
18474;BMP180;30265;52.408;13.500;2022-07-10T16:19:41;101604.00;;;20.00
18474;BMP180;30265;52.408;13.500;2022-07-10T16:30:06;101591.00;;;20.50
18474;BMP180;30265;52.408;13.500;2022-07-10T16:40:28;101606.00;;;19.90
18474;BMP180;30265;52.408;13.500;2022-07-10T16:50:51;101593.00;;;19.50
18474;BMP180;30265;52.408;13.500;2022-07-10T17:01:13;101606.00;;;19.50
18474;BMP180;30265;52.408;13.500;2022-07-10T17:11:36;101596.00;;;20.40
18474;BMP180;30265;52.408;13.500;2022-07-10T17:21:58;101598.00;;;20.50
18474;BMP180;30265;52.408;13.500;2022-07-10T17:32:23;101616.00;;;19.60
18474;BMP180;30265;52.408;13.500;2022-07-10T17:42:54;101597.00;;;19.30
18474;BMP180;30265;52.408;13.500;2022-07-10T17:53:18;101609.00;;;19.20
18474;BMP180;30265;52.408;13.500;2022-07-10T18:03:41;101625.00;;;19.00
18474;BMP180;30265;52.408;13.500;2022-07-10T18:14:09;101627.00;;;18.90
18474;BMP180;30265;52.408;13.500;2022-07-10T18:24:33;101636.00;;;19.00
18474;BMP180;30265;52.408;13.500;2022-07-10T18:34:57;101640.00;;;18.90
18474;BMP180;30265;52.408;13.500;2022-07-10T18:45:20;101646.00;;;18.80
18474;BMP180;30265;52.408;13.500;2022-07-10T18:55:44;101639.00;;;18.70
18474;BMP180;30265;52.408;13.500;2022-07-10T19:06:06;101652.00;;;18.50
18474;BMP180;30265;52.408;13.500;2022-07-10T19:16:29;101667.00;;;18.30
18474;BMP180;30265;52.408;13.500;2022-07-10T19:26:52;101665.00;;;18.20
18474;BMP180;30265;52.408;13.500;2022-07-10T19:37:17;101675.00;;;18.10
18474;BMP180;30265;52.408;13.500;2022-07-10T19:47:42;101677.00;;;17.80
18474;BMP180;30265;52.408;13.500;2022-07-10T19:58:06;101698.00;;;17.50
18474;BMP180;30265;52.408;13.500;2022-07-10T20:08:28;101704.00;;;17.30
18474;BMP180;30265;52.408;13.500;2022-07-10T20:18:52;101701.00;;;17.00
18474;BMP180;30265;52.408;13.500;2022-07-10T20:29:25;101717.00;;;16.80
18474;BMP180;30265;52.408;13.500;2022-07-10T20:39:48;101709.00;;;16.30
18474;BMP180;30265;52.408;13.500;2022-07-10T20:50:11;101714.00;;;16.20
18474;BMP180;30265;52.408;13.500;2022-07-10T21:00:34;101722.00;;;15.90
18474;BMP180;30265;52.408;13.500;2022-07-10T21:10:59;101732.00;;;15.60
18474;BMP180;30265;52.408;13.500;2022-07-10T21:21:28;101735.00;;;15.40
18474;BMP180;30265;52.408;13.500;2022-07-10T21:31:50;101734.00;;;15.20
18474;BMP180;30265;52.408;13.500;2022-07-10T21:42:13;101739.00;;;14.90
18474;BMP180;30265;52.408;13.500;2022-07-10T21:52:36;101739.00;;;14.70
18474;BMP180;30265;52.408;13.500;2022-07-10T22:02:59;101739.00;;;14.70
18474;BMP180;30265;52.408;13.500;2022-07-10T22:13:21;101744.00;;;14.70
18474;BMP180;30265;52.408;13.500;2022-07-10T22:23:45;101738.00;;;14.60
18474;BMP180;30265;52.408;13.500;2022-07-10T22:34:07;101745.00;;;14.70
18474;BMP180;30265;52.408;13.500;2022-07-10T22:44:30;101744.00;;;14.90
18474;BMP180;30265;52.408;13.500;2022-07-10T22:54:51;101733.00;;;15.10
18474;BMP180;30265;52.408;13.500;2022-07-10T23:05:14;101727.00;;;15.20
18474;BMP180;30265;52.408;13.500;2022-07-10T23:15:36;101724.00;;;15.10
18474;BMP180;30265;52.408;13.500;2022-07-10T23:26:00;101727.00;;;15.00
18474;BMP180;30265;52.408;13.500;2022-07-10T23:36:21;101730.00;;;14.90
18474;BMP180;30265;52.408;13.500;2022-07-10T23:46:44;101726.00;;;15.00
18474;BMP180;30265;52.408;13.500;2022-07-10T23:57:07;101717.00;;;15.10
